04:20
Airports
History
Links
Donate
Help keep this website running!
PayPal
Bitcoin
Information on this page is community maintained and may be outdated or inaccurate and is intended for reference only or PC simulator navigating!
Always use approved charts for navigating.
LIDU
Carpi Budrione
Carpi Budrione (LIDU)
Carpi, Emilia-Romagna, Italy (41012)
(U)
Lat/Lng:44° 50' 6" N / 10° 52' 18" E
44.834999 / 10.871667
Elevation:69'ft 21mMSL
ID / ICAO:LIDU
Runways:1
Longest:(02-20) 853.0m 2,799ft Asphalt
Distance To
Airport ID:
Nearby VORs <50NM
Nearby NDBs
Nearby WeatherUpdated 03-28-17 03:50 GMT
Nearby weather at LIPE, BOLOGNA located 29.1 nautical miles from LIDU
Altimeter: 30.24
Visibility: 6.2 statute miles
Wind: 3 knots (220°)
Temp: 4°c 39°f
Humidity: 69.8%

METAR: LIPE 280350Z 22003KT CAVOK 04/M01 Q1024

(Powered by phpweather)
Runway 02 / 20
Dimensions:853 x 28m 2799' x 92'ft
Surface:Asphalt
Runway 02 [A]Runway 20 [B]
Heading:020°TH 200°TH
Lat:
Lng:
44° 49' 53.06"N
10° 52' 11.36"E
44° 50' 18.93"N
10° 52' 24.64"E
Google Map
Nearby Airports
(U) REGGIO EMILIA 13.9 NM
LIDE SW 227°
(R) Modena Marzaglia 14.2 NM
LIPM S 190°
4 Mantova 21.1 NM
LIDM N 349°
(C) PARMA 28.2 NM
LIMP W 268°
4 Legnago 29.1 NM
LIDL NE 45°
(C) BOLOGNA 29.1 NM
LIPE (WX) SE 135°
4 Pavullo 35.5 NM
LIDP S 183°
VFR Chart
Flight Planning at SkyVector.com